sensor_id;sensor_type;location;lat;lon;timestamp;P1;durP1;ratioP1;P2;durP2;ratioP2
17510;SDS011;8873;48.818;9.422;2023-04-29T00:02:22;31.88;;;7.45;;
17510;SDS011;8873;48.818;9.422;2023-04-29T00:04:51;13.15;;;6.70;;
17510;SDS011;8873;48.818;9.422;2023-04-29T00:07:20;16.58;;;7.65;;
17510;SDS011;8873;48.818;9.422;2023-04-29T00:09:47;10.63;;;6.45;;
17510;SDS011;8873;48.818;9.422;2023-04-29T00:12:15;11.35;;;6.15;;
17510;SDS011;8873;48.818;9.422;2023-04-29T00:14:43;11.98;;;6.55;;
17510;SDS011;8873;48.818;9.422;2023-04-29T00:17:10;11.45;;;6.65;;
17510;SDS011;8873;48.818;9.422;2023-04-29T00:19:38;11.63;;;6.28;;
17510;SDS011;8873;48.818;9.422;2023-04-29T00:22:11;14.45;;;6.30;;
17510;SDS011;8873;48.818;9.422;2023-04-29T00:24:38;8.55;;;5.88;;
17510;SDS011;8873;48.818;9.422;2023-04-29T00:27:06;10.05;;;5.85;;
17510;SDS011;8873;48.818;9.422;2023-04-29T00:29:33;14.57;;;6.82;;
17510;SDS011;8873;48.818;9.422;2023-04-29T00:32:02;19.40;;;7.03;;
17510;SDS011;8873;48.818;9.422;2023-04-29T00:34:29;10.13;;;6.40;;
17510;SDS011;8873;48.818;9.422;2023-04-29T00:36:57;15.98;;;6.82;;
17510;SDS011;8873;48.818;9.422;2023-04-29T00:39:26;18.95;;;6.65;;
17510;SDS011;8873;48.818;9.422;2023-04-29T00:41:53;22.85;;;7.43;;
17510;SDS011;8873;48.818;9.422;2023-04-29T00:44:21;21.30;;;6.65;;
17510;SDS011;8873;48.818;9.422;2023-04-29T00:46:48;28.50;;;7.32;;
17510;SDS011;8873;48.818;9.422;2023-04-29T00:49:16;16.33;;;6.90;;
17510;SDS011;8873;48.818;9.422;2023-04-29T00:51:43;13.90;;;6.68;;
17510;SDS011;8873;48.818;9.422;2023-04-29T00:54:11;15.15;;;6.55;;
17510;SDS011;8873;48.818;9.422;2023-04-29T00:56:40;8.02;;;5.35;;
17510;SDS011;8873;48.818;9.422;2023-04-29T00:59:10;12.45;;;5.88;;
17510;SDS011;8873;48.818;9.422;2023-04-29T01:01:37;8.80;;;5.88;;
17510;SDS011;8873;48.818;9.422;2023-04-29T01:04:05;8.93;;;5.72;;
17510;SDS011;8873;48.818;9.422;2023-04-29T01:06:37;9.23;;;5.22;;
17510;SDS011;8873;48.818;9.422;2023-04-29T01:09:12;7.35;;;5.15;;
17510;SDS011;8873;48.818;9.422;2023-04-29T01:11:48;6.95;;;5.32;;
17510;SDS011;8873;48.818;9.422;2023-04-29T01:14:19;10.30;;;6.10;;
17510;SDS011;8873;48.818;9.422;2023-04-29T01:16:48;10.23;;;6.10;;
17510;SDS011;8873;48.818;9.422;2023-04-29T01:19:20;16.05;;;5.90;;
17510;SDS011;8873;48.818;9.422;2023-04-29T01:21:53;46.00;;;6.75;;
17510;SDS011;8873;48.818;9.422;2023-04-29T01:24:22;23.25;;;6.45;;
17510;SDS011;8873;48.818;9.422;2023-04-29T01:26:50;57.15;;;7.68;;
17510;SDS011;8873;48.818;9.422;2023-04-29T01:29:21;60.78;;;8.05;;
17510;SDS011;8873;48.818;9.422;2023-04-29T01:31:54;23.58;;;6.63;;
17510;SDS011;8873;48.818;9.422;2023-04-29T01:34:27;76.72;;;7.82;;
17510;SDS011;8873;48.818;9.422;2023-04-29T01:36:59;35.33;;;7.40;;
17510;SDS011;8873;48.818;9.422;2023-04-29T01:39:34;85.97;;;15.65;;
17510;SDS011;8873;48.818;9.422;2023-04-29T01:42:07;30.25;;;7.57;;
17510;SDS011;8873;48.818;9.422;2023-04-29T01:44:36;39.28;;;6.47;;
17510;SDS011;8873;48.818;9.422;2023-04-29T01:47:04;50.55;;;6.75;;
17510;SDS011;8873;48.818;9.422;2023-04-29T01:49:34;21.17;;;7.00;;
17510;SDS011;8873;48.818;9.422;2023-04-29T01:52:02;22.63;;;5.90;;
17510;SDS011;8873;48.818;9.422;2023-04-29T01:54:30;25.95;;;6.05;;
17510;SDS011;8873;48.818;9.422;2023-04-29T01:57:02;10.77;;;5.75;;
17510;SDS011;8873;48.818;9.422;2023-04-29T01:59:30;15.18;;;6.20;;
17510;SDS011;8873;48.818;9.422;2023-04-29T02:01:58;51.85;;;6.57;;
17510;SDS011;8873;48.818;9.422;2023-04-29T02:04:26;48.70;;;6.15;;
17510;SDS011;8873;48.818;9.422;2023-04-29T02:06:54;26.92;;;5.95;;
17510;SDS011;8873;48.818;9.422;2023-04-29T02:09:22;107.25;;;8.63;;
17510;SDS011;8873;48.818;9.422;2023-04-29T02:11:49;58.45;;;6.50;;
17510;SDS011;8873;48.818;9.422;2023-04-29T02:14:18;90.30;;;8.05;;
17510;SDS011;8873;48.818;9.422;2023-04-29T02:16:46;46.50;;;6.45;;
17510;SDS011;8873;48.818;9.422;2023-04-29T02:19:13;52.47;;;7.05;;
17510;SDS011;8873;48.818;9.422;2023-04-29T02:21:41;37.15;;;6.82;;
17510;SDS011;8873;48.818;9.422;2023-04-29T02:24:09;25.23;;;6.53;;
17510;SDS011;8873;48.818;9.422;2023-04-29T02:26:37;36.60;;;5.78;;
17510;SDS011;8873;48.818;9.422;2023-04-29T02:29:04;36.42;;;6.10;;
17510;SDS011;8873;48.818;9.422;2023-04-29T02:31:33;40.63;;;6.03;;
17510;SDS011;8873;48.818;9.422;2023-04-29T02:34:01;22.35;;;5.90;;
17510;SDS011;8873;48.818;9.422;2023-04-29T02:36:29;123.05;;;9.10;;
17510;SDS011;8873;48.818;9.422;2023-04-29T02:38:57;221.50;;;10.75;;
17510;SDS011;8873;48.818;9.422;2023-04-29T02:41:25;124.18;;;8.27;;
17510;SDS011;8873;48.818;9.422;2023-04-29T02:43:53;152.10;;;8.23;;
17510;SDS011;8873;48.818;9.422;2023-04-29T02:46:20;46.50;;;6.28;;
17510;SDS011;8873;48.818;9.422;2023-04-29T02:48:49;33.38;;;5.55;;
17510;SDS011;8873;48.818;9.422;2023-04-29T02:51:17;25.17;;;5.45;;
17510;SDS011;8873;48.818;9.422;2023-04-29T02:53:45;33.13;;;4.88;;
17510;SDS011;8873;48.818;9.422;2023-04-29T02:56:12;37.10;;;4.88;;
17510;SDS011;8873;48.818;9.422;2023-04-29T02:58:40;26.55;;;4.57;;
17510;SDS011;8873;48.818;9.422;2023-04-29T03:01:07;15.23;;;4.50;;
17510;SDS011;8873;48.818;9.422;2023-04-29T03:03:35;22.67;;;5.05;;
17510;SDS011;8873;48.818;9.422;2023-04-29T03:06:04;26.55;;;4.80;;
17510;SDS011;8873;48.818;9.422;2023-04-29T03:08:32;21.50;;;4.85;;
17510;SDS011;8873;48.818;9.422;2023-04-29T03:11:01;17.90;;;4.70;;
17510;SDS011;8873;48.818;9.422;2023-04-29T03:13:29;13.10;;;4.30;;
17510;SDS011;8873;48.818;9.422;2023-04-29T03:15:56;36.15;;;6.22;;
17510;SDS011;8873;48.818;9.422;2023-04-29T03:18:25;35.88;;;5.43;;
17510;SDS011;8873;48.818;9.422;2023-04-29T03:20:53;30.95;;;5.32;;
17510;SDS011;8873;48.818;9.422;2023-04-29T03:23:22;37.97;;;5.50;;
17510;SDS011;8873;48.818;9.422;2023-04-29T03:25:50;57.05;;;5.88;;
17510;SDS011;8873;48.818;9.422;2023-04-29T03:28:18;23.67;;;4.88;;
17510;SDS011;8873;48.818;9.422;2023-04-29T03:30:45;35.60;;;5.70;;
17510;SDS011;8873;48.818;9.422;2023-04-29T03:33:13;29.67;;;4.97;;
17510;SDS011;8873;48.818;9.422;2023-04-29T03:35:41;43.88;;;5.18;;
17510;SDS011;8873;48.818;9.422;2023-04-29T03:38:09;69.90;;;6.03;;
17510;SDS011;8873;48.818;9.422;2023-04-29T03:40:38;51.50;;;5.13;;
17510;SDS011;8873;48.818;9.422;2023-04-29T03:43:06;41.08;;;5.00;;
17510;SDS011;8873;48.818;9.422;2023-04-29T03:45:34;20.38;;;4.53;;
17510;SDS011;8873;48.818;9.422;2023-04-29T03:48:02;24.25;;;4.97;;
17510;SDS011;8873;48.818;9.422;2023-04-29T03:50:30;31.65;;;4.72;;
17510;SDS011;8873;48.818;9.422;2023-04-29T03:52:58;23.65;;;5.30;;
17510;SDS011;8873;48.818;9.422;2023-04-29T03:55:26;19.70;;;4.78;;
17510;SDS011;8873;48.818;9.422;2023-04-29T03:57:55;28.58;;;5.65;;
17510;SDS011;8873;48.818;9.422;2023-04-29T04:00:22;17.83;;;5.00;;
17510;SDS011;8873;48.818;9.422;2023-04-29T04:02:51;15.25;;;4.78;;
17510;SDS011;8873;48.818;9.422;2023-04-29T04:05:19;21.10;;;4.60;;
17510;SDS011;8873;48.818;9.422;2023-04-29T04:07:50;18.70;;;4.80;;
17510;SDS011;8873;48.818;9.422;2023-04-29T04:10:18;13.23;;;4.68;;
17510;SDS011;8873;48.818;9.422;2023-04-29T04:12:45;23.35;;;4.50;;
17510;SDS011;8873;48.818;9.422;2023-04-29T04:15:15;30.40;;;5.15;;
17510;SDS011;8873;48.818;9.422;2023-04-29T04:17:43;38.20;;;4.68;;
17510;SDS011;8873;48.818;9.422;2023-04-29T04:20:11;35.75;;;4.68;;
17510;SDS011;8873;48.818;9.422;2023-04-29T04:22:39;24.92;;;5.30;;
17510;SDS011;8873;48.818;9.422;2023-04-29T04:25:07;20.63;;;4.68;;
17510;SDS011;8873;48.818;9.422;2023-04-29T04:27:34;19.20;;;4.55;;
17510;SDS011;8873;48.818;9.422;2023-04-29T04:30:02;39.47;;;5.03;;
17510;SDS011;8873;48.818;9.422;2023-04-29T04:32:31;23.58;;;4.70;;
17510;SDS011;8873;48.818;9.422;2023-04-29T04:34:59;21.15;;;4.60;;
17510;SDS011;8873;48.818;9.422;2023-04-29T04:37:27;25.80;;;4.57;;
17510;SDS011;8873;48.818;9.422;2023-04-29T04:39:55;34.80;;;4.45;;
17510;SDS011;8873;48.818;9.422;2023-04-29T04:42:22;25.52;;;4.80;;
17510;SDS011;8873;48.818;9.422;2023-04-29T04:44:51;28.02;;;5.22;;
17510;SDS011;8873;48.818;9.422;2023-04-29T04:47:19;15.50;;;4.68;;
17510;SDS011;8873;48.818;9.422;2023-04-29T04:49:48;15.52;;;4.90;;
17510;SDS011;8873;48.818;9.422;2023-04-29T04:52:18;53.55;;;5.85;;
17510;SDS011;8873;48.818;9.422;2023-04-29T04:54:46;35.53;;;5.95;;
17510;SDS011;8873;48.818;9.422;2023-04-29T04:57:14;102.05;;;7.38;;
17510;SDS011;8873;48.818;9.422;2023-04-29T04:59:41;76.32;;;6.57;;
17510;SDS011;8873;48.818;9.422;2023-04-29T05:02:09;118.50;;;8.90;;
17510;SDS011;8873;48.818;9.422;2023-04-29T05:04:37;77.72;;;6.50;;
17510;SDS011;8873;48.818;9.422;2023-04-29T05:07:06;66.80;;;6.22;;
17510;SDS011;8873;48.818;9.422;2023-04-29T05:09:33;81.65;;;8.35;;
17510;SDS011;8873;48.818;9.422;2023-04-29T05:12:01;49.30;;;6.40;;
17510;SDS011;8873;48.818;9.422;2023-04-29T05:14:28;36.92;;;6.32;;
17510;SDS011;8873;48.818;9.422;2023-04-29T05:16:57;16.52;;;5.63;;
17510;SDS011;8873;48.818;9.422;2023-04-29T05:19:24;13.18;;;5.30;;
17510;SDS011;8873;48.818;9.422;2023-04-29T05:21:52;12.20;;;5.50;;
17510;SDS011;8873;48.818;9.422;2023-04-29T05:24:21;6.78;;;4.50;;
17510;SDS011;8873;48.818;9.422;2023-04-29T05:26:49;6.32;;;4.63;;
17510;SDS011;8873;48.818;9.422;2023-04-29T05:29:17;6.82;;;4.50;;
17510;SDS011;8873;48.818;9.422;2023-04-29T05:31:44;10.93;;;7.50;;
17510;SDS011;8873;48.818;9.422;2023-04-29T05:34:12;12.27;;;7.65;;
17510;SDS011;8873;48.818;9.422;2023-04-29T05:36:40;13.43;;;8.25;;
17510;SDS011;8873;48.818;9.422;2023-04-29T05:39:07;16.73;;;8.30;;
17510;SDS011;8873;48.818;9.422;2023-04-29T05:41:36;10.38;;;6.57;;
17510;SDS011;8873;48.818;9.422;2023-04-29T05:44:04;12.48;;;6.95;;
17510;SDS011;8873;48.818;9.422;2023-04-29T05:46:31;8.52;;;5.75;;
17510;SDS011;8873;48.818;9.422;2023-04-29T05:48:59;7.03;;;5.63;;
17510;SDS011;8873;48.818;9.422;2023-04-29T05:51:27;6.18;;;5.53;;
17510;SDS011;8873;48.818;9.422;2023-04-29T05:53:54;8.80;;;5.75;;
17510;SDS011;8873;48.818;9.422;2023-04-29T05:56:24;8.00;;;5.88;;
17510;SDS011;8873;48.818;9.422;2023-04-29T05:58:53;7.00;;;5.80;;
17510;SDS011;8873;48.818;9.422;2023-04-29T06:01:21;8.07;;;6.65;;
17510;SDS011;8873;48.818;9.422;2023-04-29T06:03:48;6.72;;;6.03;;
17510;SDS011;8873;48.818;9.422;2023-04-29T06:06:16;7.35;;;5.75;;
17510;SDS011;8873;48.818;9.422;2023-04-29T06:08:44;6.18;;;5.57;;
17510;SDS011;8873;48.818;9.422;2023-04-29T06:11:12;6.28;;;5.05;;
17510;SDS011;8873;48.818;9.422;2023-04-29T06:13:40;6.32;;;5.05;;
17510;SDS011;8873;48.818;9.422;2023-04-29T06:16:09;6.50;;;4.78;;
17510;SDS011;8873;48.818;9.422;2023-04-29T06:18:37;8.13;;;5.78;;
17510;SDS011;8873;48.818;9.422;2023-04-29T06:21:05;9.90;;;6.68;;
17510;SDS011;8873;48.818;9.422;2023-04-29T06:23:33;11.00;;;7.35;;
17510;SDS011;8873;48.818;9.422;2023-04-29T06:26:00;12.45;;;6.88;;
17510;SDS011;8873;48.818;9.422;2023-04-29T06:28:28;9.95;;;6.80;;
17510;SDS011;8873;48.818;9.422;2023-04-29T06:30:56;8.43;;;6.55;;
17510;SDS011;8873;48.818;9.422;2023-04-29T06:33:25;12.15;;;6.78;;
17510;SDS011;8873;48.818;9.422;2023-04-29T06:35:54;13.43;;;7.60;;
17510;SDS011;8873;48.818;9.422;2023-04-29T06:38:22;9.25;;;6.68;;
17510;SDS011;8873;48.818;9.422;2023-04-29T06:40:50;10.23;;;6.40;;
17510;SDS011;8873;48.818;9.422;2023-04-29T06:43:22;9.13;;;6.90;;
17510;SDS011;8873;48.818;9.422;2023-04-29T06:45:51;9.73;;;7.45;;
17510;SDS011;8873;48.818;9.422;2023-04-29T06:48:19;8.77;;;7.57;;
17510;SDS011;8873;48.818;9.422;2023-04-29T06:50:51;10.95;;;8.18;;
17510;SDS011;8873;48.818;9.422;2023-04-29T06:53:21;12.98;;;8.63;;
17510;SDS011;8873;48.818;9.422;2023-04-29T06:55:49;11.88;;;8.68;;
17510;SDS011;8873;48.818;9.422;2023-04-29T06:58:16;15.07;;;8.90;;
17510;SDS011;8873;48.818;9.422;2023-04-29T07:00:48;13.07;;;8.75;;
17510;SDS011;8873;48.818;9.422;2023-04-29T07:03:19;12.35;;;8.48;;
17510;SDS011;8873;48.818;9.422;2023-04-29T07:05:47;21.95;;;9.00;;
17510;SDS011;8873;48.818;9.422;2023-04-29T07:08:16;11.98;;;7.38;;
17510;SDS011;8873;48.818;9.422;2023-04-29T07:10:45;12.13;;;7.85;;
17510;SDS011;8873;48.818;9.422;2023-04-29T07:13:19;10.27;;;7.28;;
17510;SDS011;8873;48.818;9.422;2023-04-29T07:15:47;6.68;;;5.82;;
17510;SDS011;8873;48.818;9.422;2023-04-29T07:18:14;10.77;;;5.80;;
17510;SDS011;8873;48.818;9.422;2023-04-29T07:20:44;5.07;;;4.57;;
17510;SDS011;8873;48.818;9.422;2023-04-29T07:23:17;6.55;;;4.82;;
17510;SDS011;8873;48.818;9.422;2023-04-29T07:25:45;6.65;;;5.28;;
17510;SDS011;8873;48.818;9.422;2023-04-29T07:28:13;13.27;;;4.32;;
17510;SDS011;8873;48.818;9.422;2023-04-29T07:30:41;4.28;;;3.70;;
17510;SDS011;8873;48.818;9.422;2023-04-29T07:33:09;5.70;;;4.10;;
17510;SDS011;8873;48.818;9.422;2023-04-29T07:35:37;4.78;;;4.28;;
17510;SDS011;8873;48.818;9.422;2023-04-29T07:38:06;7.25;;;4.53;;
17510;SDS011;8873;48.818;9.422;2023-04-29T07:40:36;4.15;;;3.83;;
17510;SDS011;8873;48.818;9.422;2023-04-29T07:43:03;5.03;;;4.38;;
17510;SDS011;8873;48.818;9.422;2023-04-29T07:45:32;7.28;;;4.15;;
17510;SDS011;8873;48.818;9.422;2023-04-29T07:47:59;6.72;;;4.38;;
17510;SDS011;8873;48.818;9.422;2023-04-29T07:50:27;4.07;;;3.72;;
17510;SDS011;8873;48.818;9.422;2023-04-29T07:52:55;3.38;;;3.08;;
17510;SDS011;8873;48.818;9.422;2023-04-29T07:55:25;5.00;;;3.70;;
17510;SDS011;8873;48.818;9.422;2023-04-29T07:57:56;4.32;;;3.50;;
17510;SDS011;8873;48.818;9.422;2023-04-29T08:00:25;4.75;;;3.45;;
17510;SDS011;8873;48.818;9.422;2023-04-29T08:02:55;3.92;;;3.40;;
17510;SDS011;8873;48.818;9.422;2023-04-29T08:05:25;3.60;;;3.30;;
17510;SDS011;8873;48.818;9.422;2023-04-29T08:08:01;3.92;;;3.53;;
17510;SDS011;8873;48.818;9.422;2023-04-29T08:10:37;3.97;;;3.58;;
17510;SDS011;8873;48.818;9.422;2023-04-29T08:13:14;4.25;;;3.03;;
17510;SDS011;8873;48.818;9.422;2023-04-29T08:15:50;3.92;;;3.15;;
17510;SDS011;8873;48.818;9.422;2023-04-29T08:18:22;3.70;;;3.35;;
17510;SDS011;8873;48.818;9.422;2023-04-29T08:20:55;4.30;;;3.30;;
17510;SDS011;8873;48.818;9.422;2023-04-29T08:23:23;13.85;;;9.73;;
17510;SDS011;8873;48.818;9.422;2023-04-29T08:25:51;8.38;;;6.60;;
17510;SDS011;8873;48.818;9.422;2023-04-29T08:28:24;3.83;;;3.53;;
17510;SDS011;8873;48.818;9.422;2023-04-29T08:30:51;4.35;;;3.38;;
17510;SDS011;8873;48.818;9.422;2023-04-29T08:33:19;3.42;;;2.90;;
17510;SDS011;8873;48.818;9.422;2023-04-29T08:35:47;3.78;;;3.05;;
17510;SDS011;8873;48.818;9.422;2023-04-29T08:38:15;5.32;;;3.30;;
17510;SDS011;8873;48.818;9.422;2023-04-29T08:40:43;3.30;;;3.00;;
17510;SDS011;8873;48.818;9.422;2023-04-29T08:43:12;3.35;;;3.10;;
17510;SDS011;8873;48.818;9.422;2023-04-29T08:45:41;3.10;;;2.85;;
17510;SDS011;8873;48.818;9.422;2023-04-29T08:48:09;3.00;;;2.80;;
17510;SDS011;8873;48.818;9.422;2023-04-29T08:50:38;3.10;;;2.80;;
17510;SDS011;8873;48.818;9.422;2023-04-29T08:53:06;3.85;;;3.08;;
17510;SDS011;8873;48.818;9.422;2023-04-29T08:55:34;2.75;;;2.58;;
17510;SDS011;8873;48.818;9.422;2023-04-29T08:58:02;3.30;;;2.90;;
17510;SDS011;8873;48.818;9.422;2023-04-29T09:00:36;3.13;;;2.92;;
17510;SDS011;8873;48.818;9.422;2023-04-29T09:03:33;4.13;;;3.05;;
17510;SDS011;8873;48.818;9.422;2023-04-29T09:06:13;4.60;;;3.40;;
17510;SDS011;8873;48.818;9.422;2023-04-29T09:08:40;5.45;;;3.90;;
17510;SDS011;8873;48.818;9.422;2023-04-29T09:11:08;3.58;;;3.33;;
17510;SDS011;8873;48.818;9.422;2023-04-29T09:13:37;3.40;;;2.92;;
17510;SDS011;8873;48.818;9.422;2023-04-29T09:16:10;3.33;;;3.08;;
17510;SDS011;8873;48.818;9.422;2023-04-29T09:18:42;4.30;;;3.90;;
17510;SDS011;8873;48.818;9.422;2023-04-29T09:21:14;3.30;;;3.10;;
17510;SDS011;8873;48.818;9.422;2023-04-29T09:23:45;3.67;;;2.60;;
17510;SDS011;8873;48.818;9.422;2023-04-29T09:26:14;2.95;;;2.45;;
17510;SDS011;8873;48.818;9.422;2023-04-29T09:28:42;3.13;;;2.35;;
17510;SDS011;8873;48.818;9.422;2023-04-29T09:31:10;3.40;;;2.38;;
17510;SDS011;8873;48.818;9.422;2023-04-29T09:33:50;4.40;;;2.60;;
17510;SDS011;8873;48.818;9.422;2023-04-29T09:36:34;3.97;;;2.65;;
17510;SDS011;8873;48.818;9.422;2023-04-29T09:39:01;2.92;;;2.72;;
17510;SDS011;8873;48.818;9.422;2023-04-29T09:41:31;3.30;;;3.00;;
17510;SDS011;8873;48.818;9.422;2023-04-29T09:44:02;2.90;;;2.65;;
17510;SDS011;8873;48.818;9.422;2023-04-29T09:46:31;3.45;;;3.15;;
17510;SDS011;8873;48.818;9.422;2023-04-29T09:49:01;2.80;;;2.70;;
17510;SDS011;8873;48.818;9.422;2023-04-29T09:51:32;2.92;;;2.63;;
17510;SDS011;8873;48.818;9.422;2023-04-29T09:54:00;3.55;;;2.60;;
17510;SDS011;8873;48.818;9.422;2023-04-29T09:56:47;2.72;;;2.53;;
17510;SDS011;8873;48.818;9.422;2023-04-29T09:59:30;3.15;;;2.83;;
17510;SDS011;8873;48.818;9.422;2023-04-29T10:01:58;2.80;;;2.60;;
17510;SDS011;8873;48.818;9.422;2023-04-29T10:04:28;3.67;;;2.60;;
17510;SDS011;8873;48.818;9.422;2023-04-29T10:06:59;2.95;;;2.65;;
17510;SDS011;8873;48.818;9.422;2023-04-29T10:09:28;3.17;;;2.88;;
17510;SDS011;8873;48.818;9.422;2023-04-29T10:11:55;2.97;;;2.83;;
17510;SDS011;8873;48.818;9.422;2023-04-29T10:14:23;2.80;;;2.70;;
17510;SDS011;8873;48.818;9.422;2023-04-29T10:16:53;3.08;;;2.88;;
17510;SDS011;8873;48.818;9.422;2023-04-29T10:19:25;4.35;;;2.80;;
17510;SDS011;8873;48.818;9.422;2023-04-29T10:21:57;2.97;;;2.85;;
17510;SDS011;8873;48.818;9.422;2023-04-29T10:24:25;4.53;;;2.72;;
17510;SDS011;8873;48.818;9.422;2023-04-29T10:26:53;2.92;;;2.72;;
17510;SDS011;8873;48.818;9.422;2023-04-29T10:29:21;3.22;;;2.92;;
17510;SDS011;8873;48.818;9.422;2023-04-29T10:31:49;2.30;;;2.20;;
17510;SDS011;8873;48.818;9.422;2023-04-29T10:34:18;2.58;;;2.47;;
17510;SDS011;8873;48.818;9.422;2023-04-29T10:36:46;3.03;;;2.80;;
17510;SDS011;8873;48.818;9.422;2023-04-29T10:39:18;4.28;;;3.00;;
17510;SDS011;8873;48.818;9.422;2023-04-29T10:41:48;2.38;;;2.15;;
17510;SDS011;8873;48.818;9.422;2023-04-29T10:44:17;2.97;;;2.80;;
17510;SDS011;8873;48.818;9.422;2023-04-29T10:46:44;2.80;;;2.60;;
17510;SDS011;8873;48.818;9.422;2023-04-29T10:49:12;3.53;;;2.75;;
17510;SDS011;8873;48.818;9.422;2023-04-29T10:51:40;2.50;;;2.30;;
17510;SDS011;8873;48.818;9.422;2023-04-29T10:54:09;2.20;;;2.10;;
17510;SDS011;8873;48.818;9.422;2023-04-29T10:56:39;3.83;;;2.90;;
17510;SDS011;8873;48.818;9.422;2023-04-29T10:59:10;3.10;;;2.83;;
17510;SDS011;8873;48.818;9.422;2023-04-29T11:01:43;2.70;;;2.50;;
17510;SDS011;8873;48.818;9.422;2023-04-29T11:04:11;2.67;;;2.47;;
17510;SDS011;8873;48.818;9.422;2023-04-29T11:06:51;5.28;;;2.70;;
17510;SDS011;8873;48.818;9.422;2023-04-29T11:09:19;2.47;;;2.38;;
17510;SDS011;8873;48.818;9.422;2023-04-29T11:11:58;2.60;;;2.50;;
17510;SDS011;8873;48.818;9.422;2023-04-29T11:14:29;2.78;;;2.58;;
17510;SDS011;8873;48.818;9.422;2023-04-29T11:16:58;2.80;;;2.60;;
17510;SDS011;8873;48.818;9.422;2023-04-29T11:19:29;2.85;;;2.60;;
17510;SDS011;8873;48.818;9.422;2023-04-29T11:24:49;5.07;;;2.53;;
17510;SDS011;8873;48.818;9.422;2023-04-29T11:27:20;2.78;;;2.53;;
17510;SDS011;8873;48.818;9.422;2023-04-29T11:29:51;3.80;;;2.63;;
17510;SDS011;8873;48.818;9.422;2023-04-29T11:32:21;4.10;;;2.55;;
17510;SDS011;8873;48.818;9.422;2023-04-29T11:34:49;3.35;;;3.15;;
17510;SDS011;8873;48.818;9.422;2023-04-29T11:37:20;3.45;;;2.50;;
17510;SDS011;8873;48.818;9.422;2023-04-29T11:39:48;3.90;;;3.00;;
17510;SDS011;8873;48.818;9.422;2023-04-29T11:42:21;3.20;;;2.33;;
17510;SDS011;8873;48.818;9.422;2023-04-29T11:44:51;3.10;;;2.90;;
17510;SDS011;8873;48.818;9.422;2023-04-29T11:47:24;2.83;;;2.55;;
17510;SDS011;8873;48.818;9.422;2023-04-29T11:49:52;4.78;;;3.33;;
17510;SDS011;8873;48.818;9.422;2023-04-29T11:52:20;2.90;;;2.70;;
17510;SDS011;8873;48.818;9.422;2023-04-29T11:54:48;4.20;;;3.38;;
17510;SDS011;8873;48.818;9.422;2023-04-29T11:57:16;3.05;;;2.85;;
17510;SDS011;8873;48.818;9.422;2023-04-29T11:59:45;4.70;;;3.33;;
17510;SDS011;8873;48.818;9.422;2023-04-29T12:02:13;8.05;;;3.10;;
17510;SDS011;8873;48.818;9.422;2023-04-29T12:04:44;4.10;;;2.90;;
17510;SDS011;8873;48.818;9.422;2023-04-29T12:07:15;2.80;;;2.60;;
17510;SDS011;8873;48.818;9.422;2023-04-29T12:09:43;3.80;;;2.92;;
17510;SDS011;8873;48.818;9.422;2023-04-29T12:12:11;4.60;;;2.67;;
17510;SDS011;8873;48.818;9.422;2023-04-29T12:14:39;3.83;;;3.20;;
17510;SDS011;8873;48.818;9.422;2023-04-29T12:17:08;3.30;;;3.10;;
17510;SDS011;8873;48.818;9.422;2023-04-29T12:19:36;5.10;;;3.20;;
17510;SDS011;8873;48.818;9.422;2023-04-29T12:22:06;3.75;;;3.45;;
17510;SDS011;8873;48.818;9.422;2023-04-29T12:24:34;3.40;;;3.10;;
17510;SDS011;8873;48.818;9.422;2023-04-29T12:27:02;3.33;;;3.00;;
17510;SDS011;8873;48.818;9.422;2023-04-29T12:29:30;3.80;;;3.33;;
17510;SDS011;8873;48.818;9.422;2023-04-29T12:31:57;3.92;;;3.38;;
17510;SDS011;8873;48.818;9.422;2023-04-29T12:34:28;3.70;;;3.40;;
17510;SDS011;8873;48.818;9.422;2023-04-29T12:36:57;3.75;;;3.05;;
17510;SDS011;8873;48.818;9.422;2023-04-29T12:39:25;4.18;;;3.75;;
17510;SDS011;8873;48.818;9.422;2023-04-29T12:41:54;4.97;;;3.78;;
17510;SDS011;8873;48.818;9.422;2023-04-29T12:44:23;3.90;;;3.17;;
17510;SDS011;8873;48.818;9.422;2023-04-29T12:46:50;6.85;;;4.10;;
17510;SDS011;8873;48.818;9.422;2023-04-29T12:49:23;4.85;;;3.30;;
17510;SDS011;8873;48.818;9.422;2023-04-29T12:51:52;3.70;;;3.40;;
17510;SDS011;8873;48.818;9.422;2023-04-29T12:54:20;5.50;;;4.15;;
17510;SDS011;8873;48.818;9.422;2023-04-29T12:56:48;6.85;;;4.07;;
17510;SDS011;8873;48.818;9.422;2023-04-29T12:59:15;4.10;;;3.70;;
17510;SDS011;8873;48.818;9.422;2023-04-29T13:01:43;4.55;;;4.00;;
17510;SDS011;8873;48.818;9.422;2023-04-29T13:04:11;4.25;;;3.78;;
17510;SDS011;8873;48.818;9.422;2023-04-29T13:06:39;5.72;;;4.05;;
17510;SDS011;8873;48.818;9.422;2023-04-29T13:09:08;5.35;;;3.83;;
17510;SDS011;8873;48.818;9.422;2023-04-29T13:11:43;6.88;;;4.47;;
17510;SDS011;8873;48.818;9.422;2023-04-29T13:14:11;7.43;;;4.60;;
17510;SDS011;8873;48.818;9.422;2023-04-29T13:16:39;4.70;;;4.20;;
17510;SDS011;8873;48.818;9.422;2023-04-29T13:19:07;7.55;;;5.03;;
17510;SDS011;8873;48.818;9.422;2023-04-29T13:21:54;7.30;;;5.30;;
17510;SDS011;8873;48.818;9.422;2023-04-29T13:24:24;6.40;;;5.15;;
17510;SDS011;8873;48.818;9.422;2023-04-29T13:26:51;6.20;;;4.90;;
17510;SDS011;8873;48.818;9.422;2023-04-29T13:29:19;6.22;;;5.45;;
17510;SDS011;8873;48.818;9.422;2023-04-29T13:31:47;6.20;;;5.00;;
17510;SDS011;8873;48.818;9.422;2023-04-29T13:34:15;8.52;;;4.57;;
17510;SDS011;8873;48.818;9.422;2023-04-29T13:36:43;8.05;;;4.97;;
17510;SDS011;8873;48.818;9.422;2023-04-29T13:39:11;8.50;;;5.25;;
17510;SDS011;8873;48.818;9.422;2023-04-29T13:41:41;7.80;;;5.00;;
17510;SDS011;8873;48.818;9.422;2023-04-29T13:44:11;6.82;;;4.80;;
17510;SDS011;8873;48.818;9.422;2023-04-29T13:46:42;6.25;;;4.85;;
17510;SDS011;8873;48.818;9.422;2023-04-29T13:49:12;5.65;;;4.45;;
17510;SDS011;8873;48.818;9.422;2023-04-29T13:52:01;6.22;;;5.22;;
17510;SDS011;8873;48.818;9.422;2023-04-29T13:54:48;6.68;;;4.53;;
17510;SDS011;8873;48.818;9.422;2023-04-29T13:57:37;4.93;;;4.43;;
17510;SDS011;8873;48.818;9.422;2023-04-29T14:00:25;5.97;;;5.28;;
17510;SDS011;8873;48.818;9.422;2023-04-29T14:02:56;8.88;;;4.90;;
17510;SDS011;8873;48.818;9.422;2023-04-29T14:05:23;7.78;;;4.85;;
17510;SDS011;8873;48.818;9.422;2023-04-29T14:07:52;6.03;;;5.40;;
17510;SDS011;8873;48.818;9.422;2023-04-29T14:10:19;7.25;;;5.50;;
17510;SDS011;8873;48.818;9.422;2023-04-29T14:12:48;7.35;;;5.43;;
17510;SDS011;8873;48.818;9.422;2023-04-29T14:15:16;7.15;;;5.50;;
17510;SDS011;8873;48.818;9.422;2023-04-29T14:17:44;5.90;;;5.30;;
17510;SDS011;8873;48.818;9.422;2023-04-29T14:20:12;14.70;;;6.30;;
17510;SDS011;8873;48.818;9.422;2023-04-29T14:22:40;7.43;;;5.47;;
17510;SDS011;8873;48.818;9.422;2023-04-29T14:25:07;6.57;;;5.32;;
17510;SDS011;8873;48.818;9.422;2023-04-29T14:27:37;5.75;;;5.15;;
17510;SDS011;8873;48.818;9.422;2023-04-29T14:30:07;5.30;;;4.75;;
17510;SDS011;8873;48.818;9.422;2023-04-29T14:32:35;5.82;;;4.97;;
17510;SDS011;8873;48.818;9.422;2023-04-29T14:35:03;6.43;;;4.60;;
17510;SDS011;8873;48.818;9.422;2023-04-29T14:37:30;7.20;;;5.60;;
17510;SDS011;8873;48.818;9.422;2023-04-29T14:39:58;8.13;;;5.65;;
17510;SDS011;8873;48.818;9.422;2023-04-29T14:42:26;7.75;;;5.03;;
17510;SDS011;8873;48.818;9.422;2023-04-29T14:44:53;7.68;;;5.00;;
17510;SDS011;8873;48.818;9.422;2023-04-29T14:47:22;6.07;;;5.03;;
17510;SDS011;8873;48.818;9.422;2023-04-29T14:49:50;6.10;;;5.38;;
17510;SDS011;8873;48.818;9.422;2023-04-29T14:52:18;8.02;;;5.88;;
17510;SDS011;8873;48.818;9.422;2023-04-29T14:54:46;6.15;;;5.22;;
17510;SDS011;8873;48.818;9.422;2023-04-29T14:57:14;6.82;;;5.53;;
17510;SDS011;8873;48.818;9.422;2023-04-29T14:59:42;7.70;;;5.72;;
17510;SDS011;8873;48.818;9.422;2023-04-29T15:02:10;6.38;;;5.43;;
17510;SDS011;8873;48.818;9.422;2023-04-29T15:04:39;6.88;;;5.03;;
17510;SDS011;8873;48.818;9.422;2023-04-29T15:07:11;9.93;;;5.60;;
17510;SDS011;8873;48.818;9.422;2023-04-29T15:09:39;7.35;;;5.28;;
17510;SDS011;8873;48.818;9.422;2023-04-29T15:12:09;7.55;;;5.65;;